Carlisle, Louisiana
Current Conditions -  °F | °C
As of 4:55 AM on Friday 24 Oct 2014 (Local Time) from KNBG Reporting Station
Clear Clear  
Wind Chill: 54°   Ceiling: Unl
Heat Index: 54°   Visibility: NA
Dew Point: 50°   Wind: 6mph
Humidity: 86%   Direction: 10°N
Pressure: 30.08"   Gusts: NA
Location:  29.68°N, 89.95°W
Report Text: KNBG 240955Z AUTO 01005KT CLR 12/10 A3008 RMK AO2 SLP184 T01220100 TSNO $
Loading
Personal Weather Stations






























Interactive Weather Map
Tropical Storm Tracking
New forecast layout! Learn more

10-Day Weather Forecast

Advertisements
Track Severe Weather on mobile